Clive, New Zealand
Current Conditions -  °F | °C
As of 5:30 AM on Tuesday 25 Nov 2014 (Local Time) from NZWN Reporting Station
Overcast Overcast  
Wind Chill: 61°   Ceiling: 1000
Heat Index: 61°   Visibility: 6mi
Dew Point: 59°   Wind: 20mph
Humidity: 94%   Direction: 350°N
Pressure: 29.85"   Gusts: NA
Location:  39.58°S, 176.91°E
Report Text: NZWN 241730Z AUTO 35017KT 9999 OVC010/// 16/15 Q1011 TEMPO 4000DZ BKN008
Loading
Personal Weather Stations






























Interactive Weather Map New forecast layout! Learn more

10-Day Weather Forecast

Advertisements
Track Severe Weather on mobile